sensor_id;sensor_type;location;lat;lon;timestamp;temperature;humidity
52459;DHT22;38372;52.902;6.024;2023-07-31T00:00:32;15.50;99.90
52459;DHT22;38372;52.902;6.024;2023-07-31T00:02:57;15.50;99.90
52459;DHT22;38372;52.902;6.024;2023-07-31T00:05:23;15.50;99.90
52459;DHT22;38372;52.902;6.024;2023-07-31T00:07:49;15.50;99.90
52459;DHT22;38372;52.902;6.024;2023-07-31T00:10:15;15.40;99.90
52459;DHT22;38372;52.902;6.024;2023-07-31T00:12:43;15.40;99.90
52459;DHT22;38372;52.902;6.024;2023-07-31T00:15:09;15.40;99.90
52459;DHT22;38372;52.902;6.024;2023-07-31T00:17:36;15.40;99.90
52459;DHT22;38372;52.902;6.024;2023-07-31T00:20:01;15.40;99.90
52459;DHT22;38372;52.902;6.024;2023-07-31T00:22:27;15.40;99.90
52459;DHT22;38372;52.902;6.024;2023-07-31T00:24:53;15.30;99.90
52459;DHT22;38372;52.902;6.024;2023-07-31T00:27:19;15.30;99.90
52459;DHT22;38372;52.902;6.024;2023-07-31T00:29:44;15.30;99.90
52459;DHT22;38372;52.902;6.024;2023-07-31T00:32:10;15.30;99.90
52459;DHT22;38372;52.902;6.024;2023-07-31T00:34:36;15.30;99.90
52459;DHT22;38372;52.902;6.024;2023-07-31T00:37:02;15.30;99.90
52459;DHT22;38372;52.902;6.024;2023-07-31T00:39:30;15.30;99.90
52459;DHT22;38372;52.902;6.024;2023-07-31T00:41:55;15.30;99.90
52459;DHT22;38372;52.902;6.024;2023-07-31T00:44:21;15.30;99.90
52459;DHT22;38372;52.902;6.024;2023-07-31T00:46:47;15.30;99.90
52459;DHT22;38372;52.902;6.024;2023-07-31T00:49:13;15.30;99.90
52459;DHT22;38372;52.902;6.024;2023-07-31T00:51:39;15.30;99.90
52459;DHT22;38372;52.902;6.024;2023-07-31T00:54:06;15.30;99.90
52459;DHT22;38372;52.902;6.024;2023-07-31T00:56:32;15.30;99.90
52459;DHT22;38372;52.902;6.024;2023-07-31T00:58:58;15.30;99.90
52459;DHT22;38372;52.902;6.024;2023-07-31T01:01:24;15.30;99.90
52459;DHT22;38372;52.902;6.024;2023-07-31T01:03:51;15.30;99.90
52459;DHT22;38372;52.902;6.024;2023-07-31T01:06:44;15.30;99.90
52459;DHT22;38372;52.902;6.024;2023-07-31T01:12:02;15.30;99.90
52459;DHT22;38372;52.902;6.024;2023-07-31T01:14:28;15.30;99.90
52459;DHT22;38372;52.902;6.024;2023-07-31T01:16:54;15.30;99.90
52459;DHT22;38372;52.902;6.024;2023-07-31T01:19:26;15.30;99.90
52459;DHT22;38372;52.902;6.024;2023-07-31T01:24:41;15.30;99.90
52459;DHT22;38372;52.902;6.024;2023-07-31T01:27:17;15.40;99.90
52459;DHT22;38372;52.902;6.024;2023-07-31T01:30:00;15.40;99.90
52459;DHT22;38372;52.902;6.024;2023-07-31T01:32:29;15.40;99.90
52459;DHT22;38372;52.902;6.024;2023-07-31T01:34:57;15.40;99.90
52459;DHT22;38372;52.902;6.024;2023-07-31T01:37:28;15.40;99.90
52459;DHT22;38372;52.902;6.024;2023-07-31T01:39:55;15.40;99.90
52459;DHT22;38372;52.902;6.024;2023-07-31T01:42:20;15.40;99.90
52459;DHT22;38372;52.902;6.024;2023-07-31T01:44:46;15.40;99.90
52459;DHT22;38372;52.902;6.024;2023-07-31T01:47:12;15.50;99.90
52459;DHT22;38372;52.902;6.024;2023-07-31T01:49:37;15.40;99.90
52459;DHT22;38372;52.902;6.024;2023-07-31T01:52:03;15.50;99.90
52459;DHT22;38372;52.902;6.024;2023-07-31T01:54:29;15.50;99.90
52459;DHT22;38372;52.902;6.024;2023-07-31T01:56:55;15.50;99.90
52459;DHT22;38372;52.902;6.024;2023-07-31T01:59:21;15.50;99.90
52459;DHT22;38372;52.902;6.024;2023-07-31T02:01:47;15.50;99.90
52459;DHT22;38372;52.902;6.024;2023-07-31T02:04:12;15.60;99.90
52459;DHT22;38372;52.902;6.024;2023-07-31T02:06:39;15.60;99.90
52459;DHT22;38372;52.902;6.024;2023-07-31T02:09:04;15.60;99.90
52459;DHT22;38372;52.902;6.024;2023-07-31T02:11:30;15.60;99.90
52459;DHT22;38372;52.902;6.024;2023-07-31T02:13:56;15.70;99.90
52459;DHT22;38372;52.902;6.024;2023-07-31T02:16:22;15.70;99.90
52459;DHT22;38372;52.902;6.024;2023-07-31T02:18:47;15.70;99.90
52459;DHT22;38372;52.902;6.024;2023-07-31T02:21:13;15.80;99.90
52459;DHT22;38372;52.902;6.024;2023-07-31T02:23:39;15.70;99.90
52459;DHT22;38372;52.902;6.024;2023-07-31T02:26:04;15.80;99.90
52459;DHT22;38372;52.902;6.024;2023-07-31T02:28:30;15.80;99.90
52459;DHT22;38372;52.902;6.024;2023-07-31T02:30:56;15.80;99.90
52459;DHT22;38372;52.902;6.024;2023-07-31T02:33:23;15.90;99.90
52459;DHT22;38372;52.902;6.024;2023-07-31T02:35:49;15.80;99.90
52459;DHT22;38372;52.902;6.024;2023-07-31T02:38:14;15.70;99.90
52459;DHT22;38372;52.902;6.024;2023-07-31T02:40:40;15.60;99.90
52459;DHT22;38372;52.902;6.024;2023-07-31T02:43:09;15.40;99.90
52459;DHT22;38372;52.902;6.024;2023-07-31T02:45:35;15.40;99.90
52459;DHT22;38372;52.902;6.024;2023-07-31T02:48:00;15.40;99.90
52459;DHT22;38372;52.902;6.024;2023-07-31T02:50:26;15.40;99.90
52459;DHT22;38372;52.902;6.024;2023-07-31T02:52:54;15.40;99.90
52459;DHT22;38372;52.902;6.024;2023-07-31T02:55:19;15.40;99.90
52459;DHT22;38372;52.902;6.024;2023-07-31T02:57:45;15.40;99.90
52459;DHT22;38372;52.902;6.024;2023-07-31T03:00:11;15.40;99.90
52459;DHT22;38372;52.902;6.024;2023-07-31T03:02:37;15.40;99.90
52459;DHT22;38372;52.902;6.024;2023-07-31T03:05:03;15.40;99.90
52459;DHT22;38372;52.902;6.024;2023-07-31T03:07:28;15.40;99.90
52459;DHT22;38372;52.902;6.024;2023-07-31T03:09:56;15.40;99.90
52459;DHT22;38372;52.902;6.024;2023-07-31T03:12:23;15.50;99.90
52459;DHT22;38372;52.902;6.024;2023-07-31T03:14:49;15.50;99.90
52459;DHT22;38372;52.902;6.024;2023-07-31T03:17:15;15.50;99.90
52459;DHT22;38372;52.902;6.024;2023-07-31T03:19:41;15.50;99.90
52459;DHT22;38372;52.902;6.024;2023-07-31T03:22:06;15.60;99.90
52459;DHT22;38372;52.902;6.024;2023-07-31T03:24:32;15.60;99.90
52459;DHT22;38372;52.902;6.024;2023-07-31T03:26:58;15.60;99.90
52459;DHT22;38372;52.902;6.024;2023-07-31T03:29:24;15.60;99.90
52459;DHT22;38372;52.902;6.024;2023-07-31T03:31:49;15.60;99.90
52459;DHT22;38372;52.902;6.024;2023-07-31T03:34:15;15.60;99.90
52459;DHT22;38372;52.902;6.024;2023-07-31T03:36:41;15.60;99.90
52459;DHT22;38372;52.902;6.024;2023-07-31T03:39:06;15.60;99.90
52459;DHT22;38372;52.902;6.024;2023-07-31T03:41:32;15.60;99.90
52459;DHT22;38372;52.902;6.024;2023-07-31T03:43:58;15.60;99.90
52459;DHT22;38372;52.902;6.024;2023-07-31T03:46:24;15.60;99.90
52459;DHT22;38372;52.902;6.024;2023-07-31T03:48:50;15.70;99.90
52459;DHT22;38372;52.902;6.024;2023-07-31T03:51:16;15.70;99.90
52459;DHT22;38372;52.902;6.024;2023-07-31T03:53:43;15.70;99.90
52459;DHT22;38372;52.902;6.024;2023-07-31T03:56:09;15.80;99.90
52459;DHT22;38372;52.902;6.024;2023-07-31T03:58:34;15.80;99.90
52459;DHT22;38372;52.902;6.024;2023-07-31T04:01:01;15.80;99.90
52459;DHT22;38372;52.902;6.024;2023-07-31T04:03:27;15.80;99.90
52459;DHT22;38372;52.902;6.024;2023-07-31T04:05:54;15.90;99.90
52459;DHT22;38372;52.902;6.024;2023-07-31T04:08:21;15.90;99.90
52459;DHT22;38372;52.902;6.024;2023-07-31T04:10:47;15.90;99.90
52459;DHT22;38372;52.902;6.024;2023-07-31T04:13:13;15.90;99.90
52459;DHT22;38372;52.902;6.024;2023-07-31T04:15:39;16.00;99.90
52459;DHT22;38372;52.902;6.024;2023-07-31T04:18:06;16.10;99.90
52459;DHT22;38372;52.902;6.024;2023-07-31T04:20:32;16.10;99.90
52459;DHT22;38372;52.902;6.024;2023-07-31T04:22:58;16.10;99.90
52459;DHT22;38372;52.902;6.024;2023-07-31T04:25:23;16.10;99.90
52459;DHT22;38372;52.902;6.024;2023-07-31T04:27:49;16.10;99.90
52459;DHT22;38372;52.902;6.024;2023-07-31T04:30:15;16.00;99.90
52459;DHT22;38372;52.902;6.024;2023-07-31T04:32:41;16.00;99.90
52459;DHT22;38372;52.902;6.024;2023-07-31T04:35:07;16.10;99.90
52459;DHT22;38372;52.902;6.024;2023-07-31T04:37:33;16.10;99.90
52459;DHT22;38372;52.902;6.024;2023-07-31T04:39:58;16.20;99.90
52459;DHT22;38372;52.902;6.024;2023-07-31T04:42:24;16.10;99.90
52459;DHT22;38372;52.902;6.024;2023-07-31T04:44:50;16.20;99.90
52459;DHT22;38372;52.902;6.024;2023-07-31T04:47:18;16.20;99.90
52459;DHT22;38372;52.902;6.024;2023-07-31T04:49:44;16.20;99.90
52459;DHT22;38372;52.902;6.024;2023-07-31T04:52:10;16.20;99.90
52459;DHT22;38372;52.902;6.024;2023-07-31T04:54:36;16.20;99.90
52459;DHT22;38372;52.902;6.024;2023-07-31T04:57:01;16.30;99.90
52459;DHT22;38372;52.902;6.024;2023-07-31T04:59:27;16.30;99.90
52459;DHT22;38372;52.902;6.024;2023-07-31T05:01:53;16.30;99.90
52459;DHT22;38372;52.902;6.024;2023-07-31T05:04:18;16.30;99.90
52459;DHT22;38372;52.902;6.024;2023-07-31T05:06:44;16.40;99.90
52459;DHT22;38372;52.902;6.024;2023-07-31T05:09:10;16.30;99.90
52459;DHT22;38372;52.902;6.024;2023-07-31T05:11:36;16.40;99.90
52459;DHT22;38372;52.902;6.024;2023-07-31T05:14:01;16.40;99.90
52459;DHT22;38372;52.902;6.024;2023-07-31T05:16:27;16.40;99.90
52459;DHT22;38372;52.902;6.024;2023-07-31T05:18:53;16.50;99.90
52459;DHT22;38372;52.902;6.024;2023-07-31T05:21:19;16.40;99.90
52459;DHT22;38372;52.902;6.024;2023-07-31T05:23:44;16.40;99.90
52459;DHT22;38372;52.902;6.024;2023-07-31T05:26:10;16.40;99.90
52459;DHT22;38372;52.902;6.024;2023-07-31T05:28:36;16.50;99.90
52459;DHT22;38372;52.902;6.024;2023-07-31T05:31:05;16.50;99.90
52459;DHT22;38372;52.902;6.024;2023-07-31T05:33:32;16.50;99.90
52459;DHT22;38372;52.902;6.024;2023-07-31T05:35:58;16.60;99.90
52459;DHT22;38372;52.902;6.024;2023-07-31T05:38:24;16.60;99.90
52459;DHT22;38372;52.902;6.024;2023-07-31T05:40:50;16.60;99.90
52459;DHT22;38372;52.902;6.024;2023-07-31T05:43:15;16.60;99.90
52459;DHT22;38372;52.902;6.024;2023-07-31T05:45:44;16.60;99.90
52459;DHT22;38372;52.902;6.024;2023-07-31T05:48:10;16.60;99.90
52459;DHT22;38372;52.902;6.024;2023-07-31T05:50:36;16.70;99.90
52459;DHT22;38372;52.902;6.024;2023-07-31T05:53:04;16.70;99.90
52459;DHT22;38372;52.902;6.024;2023-07-31T05:55:30;16.70;99.90
52459;DHT22;38372;52.902;6.024;2023-07-31T05:57:56;16.80;99.90
52459;DHT22;38372;52.902;6.024;2023-07-31T06:00:21;16.80;99.90
52459;DHT22;38372;52.902;6.024;2023-07-31T06:02:48;16.90;99.90
52459;DHT22;38372;52.902;6.024;2023-07-31T06:05:14;17.00;99.90
52459;DHT22;38372;52.902;6.024;2023-07-31T06:07:40;17.00;99.90
52459;DHT22;38372;52.902;6.024;2023-07-31T06:10:06;17.00;99.90
52459;DHT22;38372;52.902;6.024;2023-07-31T06:12:32;17.00;99.90
52459;DHT22;38372;52.902;6.024;2023-07-31T06:14:58;17.00;99.90
52459;DHT22;38372;52.902;6.024;2023-07-31T06:17:24;17.00;99.90
52459;DHT22;38372;52.902;6.024;2023-07-31T06:19:51;17.00;99.90
52459;DHT22;38372;52.902;6.024;2023-07-31T06:22:17;17.00;99.90
52459;DHT22;38372;52.902;6.024;2023-07-31T06:24:43;16.90;99.90
52459;DHT22;38372;52.902;6.024;2023-07-31T06:27:09;17.00;99.90
52459;DHT22;38372;52.902;6.024;2023-07-31T06:29:34;17.00;99.90
52459;DHT22;38372;52.902;6.024;2023-07-31T06:32:00;17.00;99.90
52459;DHT22;38372;52.902;6.024;2023-07-31T06:34:26;17.00;99.90
52459;DHT22;38372;52.902;6.024;2023-07-31T06:36:56;17.00;99.90
52459;DHT22;38372;52.902;6.024;2023-07-31T06:39:22;17.00;99.90
52459;DHT22;38372;52.902;6.024;2023-07-31T06:41:48;17.00;99.90
52459;DHT22;38372;52.902;6.024;2023-07-31T06:44:14;17.00;99.90
52459;DHT22;38372;52.902;6.024;2023-07-31T06:46:39;17.00;99.90
52459;DHT22;38372;52.902;6.024;2023-07-31T06:49:05;17.00;99.90
52459;DHT22;38372;52.902;6.024;2023-07-31T06:51:31;17.00;99.90
52459;DHT22;38372;52.902;6.024;2023-07-31T06:53:57;16.90;99.90
52459;DHT22;38372;52.902;6.024;2023-07-31T06:56:23;16.90;99.90
52459;DHT22;38372;52.902;6.024;2023-07-31T06:58:49;16.90;99.90
52459;DHT22;38372;52.902;6.024;2023-07-31T07:01:15;16.90;99.90
52459;DHT22;38372;52.902;6.024;2023-07-31T07:03:41;16.90;99.90
52459;DHT22;38372;52.902;6.024;2023-07-31T07:06:07;16.80;99.90
52459;DHT22;38372;52.902;6.024;2023-07-31T07:08:32;16.80;99.90
52459;DHT22;38372;52.902;6.024;2023-07-31T07:10:58;16.80;99.90
52459;DHT22;38372;52.902;6.024;2023-07-31T07:13:24;16.80;99.90
52459;DHT22;38372;52.902;6.024;2023-07-31T07:15:50;16.80;99.90
52459;DHT22;38372;52.902;6.024;2023-07-31T07:18:17;16.70;99.90
52459;DHT22;38372;52.902;6.024;2023-07-31T07:20:47;16.70;99.90
52459;DHT22;38372;52.902;6.024;2023-07-31T07:23:13;16.70;99.90
52459;DHT22;38372;52.902;6.024;2023-07-31T07:25:39;16.70;99.90
52459;DHT22;38372;52.902;6.024;2023-07-31T07:28:05;16.60;99.90
52459;DHT22;38372;52.902;6.024;2023-07-31T07:30:30;16.70;99.90
52459;DHT22;38372;52.902;6.024;2023-07-31T07:32:56;16.70;99.90
52459;DHT22;38372;52.902;6.024;2023-07-31T07:35:22;16.80;99.90
52459;DHT22;38372;52.902;6.024;2023-07-31T07:37:51;16.80;99.90
52459;DHT22;38372;52.902;6.024;2023-07-31T07:40:16;16.80;99.90
52459;DHT22;38372;52.902;6.024;2023-07-31T07:42:42;16.80;99.90
52459;DHT22;38372;52.902;6.024;2023-07-31T07:45:08;16.90;99.90
52459;DHT22;38372;52.902;6.024;2023-07-31T07:47:34;16.90;99.90
52459;DHT22;38372;52.902;6.024;2023-07-31T07:50:00;16.90;99.90
52459;DHT22;38372;52.902;6.024;2023-07-31T07:52:26;17.00;99.90
52459;DHT22;38372;52.902;6.024;2023-07-31T07:54:51;17.00;99.90
52459;DHT22;38372;52.902;6.024;2023-07-31T07:57:17;17.00;99.90
52459;DHT22;38372;52.902;6.024;2023-07-31T07:59:44;17.10;99.90
52459;DHT22;38372;52.902;6.024;2023-07-31T08:02:09;17.10;99.90
52459;DHT22;38372;52.902;6.024;2023-07-31T08:04:35;17.10;99.90
52459;DHT22;38372;52.902;6.024;2023-07-31T08:07:01;17.10;99.90
52459;DHT22;38372;52.902;6.024;2023-07-31T08:09:27;17.20;99.90
52459;DHT22;38372;52.902;6.024;2023-07-31T08:11:52;17.10;99.90
52459;DHT22;38372;52.902;6.024;2023-07-31T08:14:18;17.10;99.90
52459;DHT22;38372;52.902;6.024;2023-07-31T08:16:44;17.10;99.90
52459;DHT22;38372;52.902;6.024;2023-07-31T08:19:10;17.10;99.90
52459;DHT22;38372;52.902;6.024;2023-07-31T08:21:36;17.20;99.90
52459;DHT22;38372;52.902;6.024;2023-07-31T08:24:02;17.20;99.90
52459;DHT22;38372;52.902;6.024;2023-07-31T08:26:28;17.20;99.90
52459;DHT22;38372;52.902;6.024;2023-07-31T08:28:53;17.20;99.90
52459;DHT22;38372;52.902;6.024;2023-07-31T08:31:19;17.20;99.90
52459;DHT22;38372;52.902;6.024;2023-07-31T08:33:45;17.20;99.90
52459;DHT22;38372;52.902;6.024;2023-07-31T08:36:11;17.20;99.90
52459;DHT22;38372;52.902;6.024;2023-07-31T08:38:36;17.30;99.90
52459;DHT22;38372;52.902;6.024;2023-07-31T08:41:05;17.40;99.90
52459;DHT22;38372;52.902;6.024;2023-07-31T08:43:32;17.40;99.90
52459;DHT22;38372;52.902;6.024;2023-07-31T08:45:58;17.50;99.90
52459;DHT22;38372;52.902;6.024;2023-07-31T08:48:24;17.50;99.90
52459;DHT22;38372;52.902;6.024;2023-07-31T08:50:54;17.60;99.90
52459;DHT22;38372;52.902;6.024;2023-07-31T08:53:19;17.60;99.90
52459;DHT22;38372;52.902;6.024;2023-07-31T08:55:46;17.60;99.90
52459;DHT22;38372;52.902;6.024;2023-07-31T08:58:13;17.60;99.90
52459;DHT22;38372;52.902;6.024;2023-07-31T09:00:40;17.60;99.90
52459;DHT22;38372;52.902;6.024;2023-07-31T09:03:13;17.50;99.90
52459;DHT22;38372;52.902;6.024;2023-07-31T09:05:43;17.50;99.90
52459;DHT22;38372;52.902;6.024;2023-07-31T09:08:10;17.40;99.90
52459;DHT22;38372;52.902;6.024;2023-07-31T09:10:44;17.50;99.90
52459;DHT22;38372;52.902;6.024;2023-07-31T09:13:12;17.40;99.90
52459;DHT22;38372;52.902;6.024;2023-07-31T09:15:39;17.50;99.90
52459;DHT22;38372;52.902;6.024;2023-07-31T09:18:06;17.50;99.90
52459;DHT22;38372;52.902;6.024;2023-07-31T09:20:32;17.60;99.90
52459;DHT22;38372;52.902;6.024;2023-07-31T09:23:10;17.70;99.90
52459;DHT22;38372;52.902;6.024;2023-07-31T09:25:37;17.80;99.90
52459;DHT22;38372;52.902;6.024;2023-07-31T09:28:05;18.00;99.90
52459;DHT22;38372;52.902;6.024;2023-07-31T09:30:45;18.20;99.90
52459;DHT22;38372;52.902;6.024;2023-07-31T09:33:11;18.40;99.90
52459;DHT22;38372;52.902;6.024;2023-07-31T09:35:37;18.60;99.90
52459;DHT22;38372;52.902;6.024;2023-07-31T09:38:13;18.80;99.90
52459;DHT22;38372;52.902;6.024;2023-07-31T09:40:44;19.00;99.90
52459;DHT22;38372;52.902;6.024;2023-07-31T09:43:12;19.00;99.90
52459;DHT22;38372;52.902;6.024;2023-07-31T09:45:42;19.10;99.90
52459;DHT22;38372;52.902;6.024;2023-07-31T09:48:10;19.20;99.90
52459;DHT22;38372;52.902;6.024;2023-07-31T09:50:40;19.40;99.90
52459;DHT22;38372;52.902;6.024;2023-07-31T09:53:07;19.50;99.90
52459;DHT22;38372;52.902;6.024;2023-07-31T09:55:34;19.50;99.90
52459;DHT22;38372;52.902;6.024;2023-07-31T09:58:05;19.50;99.90
52459;DHT22;38372;52.902;6.024;2023-07-31T10:00:32;19.40;99.90
52459;DHT22;38372;52.902;6.024;2023-07-31T10:03:04;19.40;99.90
52459;DHT22;38372;52.902;6.024;2023-07-31T10:05:42;19.40;99.90
52459;DHT22;38372;52.902;6.024;2023-07-31T10:08:10;19.40;99.90
52459;DHT22;38372;52.902;6.024;2023-07-31T10:10:37;19.40;99.90
52459;DHT22;38372;52.902;6.024;2023-07-31T10:13:06;19.30;99.90
52459;DHT22;38372;52.902;6.024;2023-07-31T10:15:33;19.30;99.90
52459;DHT22;38372;52.902;6.024;2023-07-31T10:18:00;19.20;99.90
52459;DHT22;38372;52.902;6.024;2023-07-31T10:20:26;19.30;99.90
52459;DHT22;38372;52.902;6.024;2023-07-31T10:22:54;19.30;99.90
52459;DHT22;38372;52.902;6.024;2023-07-31T10:25:22;19.30;99.90
52459;DHT22;38372;52.902;6.024;2023-07-31T10:27:49;19.40;99.90
52459;DHT22;38372;52.902;6.024;2023-07-31T10:30:18;19.50;99.90
52459;DHT22;38372;52.902;6.024;2023-07-31T10:32:45;19.60;99.90
52459;DHT22;38372;52.902;6.024;2023-07-31T10:35:12;19.90;99.90
52459;DHT22;38372;52.902;6.024;2023-07-31T10:37:42;20.10;99.90
52459;DHT22;38372;52.902;6.024;2023-07-31T10:40:25;20.20;99.90
52459;DHT22;38372;52.902;6.024;2023-07-31T10:42:52;20.20;99.90
52459;DHT22;38372;52.902;6.024;2023-07-31T10:48:01;20.00;99.90
52459;DHT22;38372;52.902;6.024;2023-07-31T10:50:28;19.90;99.90
52459;DHT22;38372;52.902;6.024;2023-07-31T10:52:56;19.70;99.90
52459;DHT22;38372;52.902;6.024;2023-07-31T10:55:33;19.60;99.90
52459;DHT22;38372;52.902;6.024;2023-07-31T10:58:09;19.50;99.90
52459;DHT22;38372;52.902;6.024;2023-07-31T11:00:43;19.50;99.90
52459;DHT22;38372;52.902;6.024;2023-07-31T11:03:15;19.50;99.90
52459;DHT22;38372;52.902;6.024;2023-07-31T11:05:53;19.30;99.90
52459;DHT22;38372;52.902;6.024;2023-07-31T11:08:30;19.20;99.90
52459;DHT22;38372;52.902;6.024;2023-07-31T11:13:32;19.10;99.90
52459;DHT22;38372;52.902;6.024;2023-07-31T11:15:59;19.00;99.90
52459;DHT22;38372;52.902;6.024;2023-07-31T11:18:26;19.00;99.90
52459;DHT22;38372;52.902;6.024;2023-07-31T11:20:53;19.10;99.90
52459;DHT22;38372;52.902;6.024;2023-07-31T11:23:19;19.20;99.90
52459;DHT22;38372;52.902;6.024;2023-07-31T11:25:46;19.20;99.90
52459;DHT22;38372;52.902;6.024;2023-07-31T11:28:16;19.20;99.90
52459;DHT22;38372;52.902;6.024;2023-07-31T11:30:43;19.30;99.90
52459;DHT22;38372;52.902;6.024;2023-07-31T11:33:11;19.20;99.90
52459;DHT22;38372;52.902;6.024;2023-07-31T11:35:46;19.20;99.90
52459;DHT22;38372;52.902;6.024;2023-07-31T11:38:27;19.10;99.90
52459;DHT22;38372;52.902;6.024;2023-07-31T11:40:55;19.00;99.90
52459;DHT22;38372;52.902;6.024;2023-07-31T11:43:22;19.00;99.90
52459;DHT22;38372;52.902;6.024;2023-07-31T11:45:52;19.00;99.90
52459;DHT22;38372;52.902;6.024;2023-07-31T11:48:26;19.00;99.90
52459;DHT22;38372;52.902;6.024;2023-07-31T11:50:58;19.00;99.90
52459;DHT22;38372;52.902;6.024;2023-07-31T11:53:28;19.00;99.90
52459;DHT22;38372;52.902;6.024;2023-07-31T11:55:57;19.00;99.90
52459;DHT22;38372;52.902;6.024;2023-07-31T11:58:24;19.10;99.90
52459;DHT22;38372;52.902;6.024;2023-07-31T12:00:50;19.10;99.90
52459;DHT22;38372;52.902;6.024;2023-07-31T12:03:18;19.20;99.90
52459;DHT22;38372;52.902;6.024;2023-07-31T12:05:44;19.30;99.90
52459;DHT22;38372;52.902;6.024;2023-07-31T12:08:11;19.30;99.90
52459;DHT22;38372;52.902;6.024;2023-07-31T12:10:37;19.20;99.90
52459;DHT22;38372;52.902;6.024;2023-07-31T12:13:08;19.10;99.90
52459;DHT22;38372;52.902;6.024;2023-07-31T12:15:41;19.10;99.90
52459;DHT22;38372;52.902;6.024;2023-07-31T12:18:14;19.00;99.90
52459;DHT22;38372;52.902;6.024;2023-07-31T12:20:47;19.00;99.90
52459;DHT22;38372;52.902;6.024;2023-07-31T12:23:22;18.90;99.90
52459;DHT22;38372;52.902;6.024;2023-07-31T12:26:03;18.80;99.90
52459;DHT22;38372;52.902;6.024;2023-07-31T12:28:29;18.70;99.90
52459;DHT22;38372;52.902;6.024;2023-07-31T12:31:00;18.70;99.90
52459;DHT22;38372;52.902;6.024;2023-07-31T12:33:31;18.80;99.90
52459;DHT22;38372;52.902;6.024;2023-07-31T12:35:59;19.00;99.90
52459;DHT22;38372;52.902;6.024;2023-07-31T12:38:25;19.10;99.90
52459;DHT22;38372;52.902;6.024;2023-07-31T12:40:51;19.30;99.90
52459;DHT22;38372;52.902;6.024;2023-07-31T12:43:17;19.40;99.90
52459;DHT22;38372;52.902;6.024;2023-07-31T12:45:43;19.50;99.90
52459;DHT22;38372;52.902;6.024;2023-07-31T12:48:08;19.50;99.90
52459;DHT22;38372;52.902;6.024;2023-07-31T12:50:34;19.50;99.90
52459;DHT22;38372;52.902;6.024;2023-07-31T12:53:02;19.60;99.90
52459;DHT22;38372;52.902;6.024;2023-07-31T12:55:29;19.70;99.90
52459;DHT22;38372;52.902;6.024;2023-07-31T12:57:55;19.70;99.90
52459;DHT22;38372;52.902;6.024;2023-07-31T13:00:21;19.80;99.90
52459;DHT22;38372;52.902;6.024;2023-07-31T13:02:47;19.70;99.90
52459;DHT22;38372;52.902;6.024;2023-07-31T13:05:13;19.70;99.90
52459;DHT22;38372;52.902;6.024;2023-07-31T13:07:40;19.60;99.90
52459;DHT22;38372;52.902;6.024;2023-07-31T13:10:07;19.50;99.90
52459;DHT22;38372;52.902;6.024;2023-07-31T13:12:33;19.50;99.90
52459;DHT22;38372;52.902;6.024;2023-07-31T13:14:59;19.60;99.90
52459;DHT22;38372;52.902;6.024;2023-07-31T13:17:25;19.60;99.90
52459;DHT22;38372;52.902;6.024;2023-07-31T13:19:51;19.60;99.90
52459;DHT22;38372;52.902;6.024;2023-07-31T13:22:17;19.60;99.90
52459;DHT22;38372;52.902;6.024;2023-07-31T13:24:43;19.50;99.90
52459;DHT22;38372;52.902;6.024;2023-07-31T13:27:09;19.60;99.90
52459;DHT22;38372;52.902;6.024;2023-07-31T13:29:34;19.60;99.90
52459;DHT22;38372;52.902;6.024;2023-07-31T13:32:00;19.60;99.90
52459;DHT22;38372;52.902;6.024;2023-07-31T13:34:26;19.70;99.90
52459;DHT22;38372;52.902;6.024;2023-07-31T13:36:53;19.70;99.90
52459;DHT22;38372;52.902;6.024;2023-07-31T13:39:19;19.80;99.90
52459;DHT22;38372;52.902;6.024;2023-07-31T13:41:44;19.80;99.90
52459;DHT22;38372;52.902;6.024;2023-07-31T13:44:10;19.70;99.90
52459;DHT22;38372;52.902;6.024;2023-07-31T13:46:36;19.80;99.90
52459;DHT22;38372;52.902;6.024;2023-07-31T13:49:02;19.80;99.90
52459;DHT22;38372;52.902;6.024;2023-07-31T13:51:28;19.80;99.90
52459;DHT22;38372;52.902;6.024;2023-07-31T13:53:54;19.80;99.90
52459;DHT22;38372;52.902;6.024;2023-07-31T13:56:19;19.90;99.90
52459;DHT22;38372;52.902;6.024;2023-07-31T13:58:45;19.80;99.90
52459;DHT22;38372;52.902;6.024;2023-07-31T14:01:11;19.80;99.90
52459;DHT22;38372;52.902;6.024;2023-07-31T14:03:37;19.80;99.90
52459;DHT22;38372;52.902;6.024;2023-07-31T14:06:02;19.90;99.90
52459;DHT22;38372;52.902;6.024;2023-07-31T14:08:28;19.90;99.90
52459;DHT22;38372;52.902;6.024;2023-07-31T14:10:55;19.90;99.90
52459;DHT22;38372;52.902;6.024;2023-07-31T14:13:21;20.00;99.90
52459;DHT22;38372;52.902;6.024;2023-07-31T14:15:47;20.00;99.90
52459;DHT22;38372;52.902;6.024;2023-07-31T14:18:13;20.00;99.90
52459;DHT22;38372;52.902;6.024;2023-07-31T14:20:38;20.00;99.90
52459;DHT22;38372;52.902;6.024;2023-07-31T14:23:04;20.10;99.90
52459;DHT22;38372;52.902;6.024;2023-07-31T14:25:30;20.10;99.90
52459;DHT22;38372;52.902;6.024;2023-07-31T14:27:56;20.10;99.90
52459;DHT22;38372;52.902;6.024;2023-07-31T14:30:22;20.00;99.90
52459;DHT22;38372;52.902;6.024;2023-07-31T14:32:47;20.00;99.90
52459;DHT22;38372;52.902;6.024;2023-07-31T14:35:13;19.90;99.90
52459;DHT22;38372;52.902;6.024;2023-07-31T14:37:41;19.90;99.90
52459;DHT22;38372;52.902;6.024;2023-07-31T14:40:09;19.80;99.90
52459;DHT22;38372;52.902;6.024;2023-07-31T14:42:36;19.70;99.90
52459;DHT22;38372;52.902;6.024;2023-07-31T14:45:03;19.60;99.90
52459;DHT22;38372;52.902;6.024;2023-07-31T14:47:28;19.60;99.90
52459;DHT22;38372;52.902;6.024;2023-07-31T14:49:56;19.60;99.90
52459;DHT22;38372;52.902;6.024;2023-07-31T14:52:22;19.60;99.90
52459;DHT22;38372;52.902;6.024;2023-07-31T14:54:48;19.50;99.90
52459;DHT22;38372;52.902;6.024;2023-07-31T14:57:13;19.60;99.90
52459;DHT22;38372;52.902;6.024;2023-07-31T14:59:39;19.50;99.90
52459;DHT22;38372;52.902;6.024;2023-07-31T15:02:06;19.50;99.90
52459;DHT22;38372;52.902;6.024;2023-07-31T15:04:32;19.50;99.90
52459;DHT22;38372;52.902;6.024;2023-07-31T15:06:58;19.50;99.90
52459;DHT22;38372;52.902;6.024;2023-07-31T15:09:24;19.50;99.90
52459;DHT22;38372;52.902;6.024;2023-07-31T15:11:49;19.50;99.90
52459;DHT22;38372;52.902;6.024;2023-07-31T15:14:15;19.40;99.90
52459;DHT22;38372;52.902;6.024;2023-07-31T15:16:41;19.40;99.90
52459;DHT22;38372;52.902;6.024;2023-07-31T15:19:07;19.40;99.90
52459;DHT22;38372;52.902;6.024;2023-07-31T15:21:32;19.40;99.90
52459;DHT22;38372;52.902;6.024;2023-07-31T15:23:58;19.40;99.90
52459;DHT22;38372;52.902;6.024;2023-07-31T15:26:24;19.40;99.90
52459;DHT22;38372;52.902;6.024;2023-07-31T15:28:56;19.40;99.90
52459;DHT22;38372;52.902;6.024;2023-07-31T15:31:21;19.50;99.90
52459;DHT22;38372;52.902;6.024;2023-07-31T15:33:50;19.50;99.90
52459;DHT22;38372;52.902;6.024;2023-07-31T15:36:16;19.50;99.90
52459;DHT22;38372;52.902;6.024;2023-07-31T15:38:42;19.50;99.90